sensor_id;sensor_type;location;lat;lon;timestamp;P1;durP1;ratioP1;P2;durP2;ratioP2
57730;SDS011;43570;47.476;19.040;2022-11-18T00:00:56;47.38;;;38.63;;
57730;SDS011;43570;47.476;19.040;2022-11-18T00:03:28;46.10;;;37.42;;
57730;SDS011;43570;47.476;19.040;2022-11-18T00:05:56;47.15;;;38.53;;
57730;SDS011;43570;47.476;19.040;2022-11-18T00:08:23;47.03;;;39.70;;
57730;SDS011;43570;47.476;19.040;2022-11-18T00:10:49;45.10;;;38.65;;
57730;SDS011;43570;47.476;19.040;2022-11-18T00:13:15;45.80;;;37.38;;
57730;SDS011;43570;47.476;19.040;2022-11-18T00:16:00;43.35;;;37.22;;
57730;SDS011;43570;47.476;19.040;2022-11-18T00:18:36;46.40;;;38.10;;
57730;SDS011;43570;47.476;19.040;2022-11-18T00:21:06;47.25;;;38.83;;
57730;SDS011;43570;47.476;19.040;2022-11-18T00:23:32;46.85;;;38.03;;
57730;SDS011;43570;47.476;19.040;2022-11-18T00:26:05;48.63;;;39.83;;
57730;SDS011;43570;47.476;19.040;2022-11-18T00:28:32;47.00;;;37.30;;
57730;SDS011;43570;47.476;19.040;2022-11-18T00:31:05;47.78;;;37.85;;
57730;SDS011;43570;47.476;19.040;2022-11-18T00:33:32;46.37;;;38.92;;
57730;SDS011;43570;47.476;19.040;2022-11-18T00:35:58;46.20;;;38.20;;
57730;SDS011;43570;47.476;19.040;2022-11-18T00:38:24;45.42;;;38.38;;
57730;SDS011;43570;47.476;19.040;2022-11-18T00:41:06;45.42;;;38.67;;
57730;SDS011;43570;47.476;19.040;2022-11-18T00:43:33;48.13;;;38.03;;
57730;SDS011;43570;47.476;19.040;2022-11-18T00:45:58;47.08;;;37.38;;
57730;SDS011;43570;47.476;19.040;2022-11-18T00:48:24;51.53;;;39.95;;
57730;SDS011;43570;47.476;19.040;2022-11-18T00:50:51;45.63;;;38.42;;
57730;SDS011;43570;47.476;19.040;2022-11-18T00:53:18;44.83;;;37.90;;
57730;SDS011;43570;47.476;19.040;2022-11-18T00:55:43;49.05;;;40.45;;
57730;SDS011;43570;47.476;19.040;2022-11-18T00:58:09;48.17;;;39.83;;
57730;SDS011;43570;47.476;19.040;2022-11-18T01:00:38;49.03;;;40.50;;
57730;SDS011;43570;47.476;19.040;2022-11-18T01:03:07;48.67;;;40.55;;
57730;SDS011;43570;47.476;19.040;2022-11-18T01:05:33;48.45;;;39.90;;
57730;SDS011;43570;47.476;19.040;2022-11-18T01:07:59;54.58;;;42.35;;
57730;SDS011;43570;47.476;19.040;2022-11-18T01:10:24;49.55;;;42.42;;
57730;SDS011;43570;47.476;19.040;2022-11-18T01:12:50;51.42;;;41.88;;
57730;SDS011;43570;47.476;19.040;2022-11-18T01:15:41;49.97;;;40.42;;
57730;SDS011;43570;47.476;19.040;2022-11-18T01:18:07;53.10;;;43.35;;
57730;SDS011;43570;47.476;19.040;2022-11-18T01:20:33;52.60;;;41.08;;
57730;SDS011;43570;47.476;19.040;2022-11-18T01:22:59;51.78;;;42.58;;
57730;SDS011;43570;47.476;19.040;2022-11-18T01:25:24;47.38;;;38.80;;
57730;SDS011;43570;47.476;19.040;2022-11-18T01:27:50;49.42;;;39.85;;
57730;SDS011;43570;47.476;19.040;2022-11-18T01:30:15;50.40;;;38.33;;
57730;SDS011;43570;47.476;19.040;2022-11-18T01:32:41;46.25;;;38.60;;
57730;SDS011;43570;47.476;19.040;2022-11-18T01:35:07;45.20;;;37.92;;
57730;SDS011;43570;47.476;19.040;2022-11-18T01:37:33;43.38;;;36.78;;
57730;SDS011;43570;47.476;19.040;2022-11-18T01:39:58;44.40;;;37.80;;
57730;SDS011;43570;47.476;19.040;2022-11-18T01:42:24;47.13;;;38.50;;
57730;SDS011;43570;47.476;19.040;2022-11-18T01:45:09;45.95;;;37.92;;
57730;SDS011;43570;47.476;19.040;2022-11-18T01:47:45;42.10;;;35.85;;
57730;SDS011;43570;47.476;19.040;2022-11-18T01:50:14;49.55;;;37.08;;
57730;SDS011;43570;47.476;19.040;2022-11-18T01:52:40;44.15;;;37.50;;
57730;SDS011;43570;47.476;19.040;2022-11-18T01:55:07;42.92;;;36.63;;
57730;SDS011;43570;47.476;19.040;2022-11-18T01:57:36;43.15;;;36.10;;
57730;SDS011;43570;47.476;19.040;2022-11-18T02:00:03;45.47;;;37.28;;
57730;SDS011;43570;47.476;19.040;2022-11-18T02:02:30;45.15;;;37.33;;
57730;SDS011;43570;47.476;19.040;2022-11-18T02:04:57;45.03;;;36.67;;
57730;SDS011;43570;47.476;19.040;2022-11-18T02:07:23;47.15;;;39.33;;
57730;SDS011;43570;47.476;19.040;2022-11-18T02:09:48;50.92;;;40.90;;
57730;SDS011;43570;47.476;19.040;2022-11-18T02:12:16;46.45;;;39.30;;
57730;SDS011;43570;47.476;19.040;2022-11-18T02:14:42;48.83;;;39.33;;
57730;SDS011;43570;47.476;19.040;2022-11-18T02:20:06;52.67;;;43.42;;
57730;SDS011;43570;47.476;19.040;2022-11-18T02:28:14;55.08;;;42.78;;
57730;SDS011;43570;47.476;19.040;2022-11-18T02:30:52;52.65;;;41.33;;
57730;SDS011;43570;47.476;19.040;2022-11-18T02:33:23;50.85;;;41.47;;
57730;SDS011;43570;47.476;19.040;2022-11-18T02:35:55;47.47;;;38.85;;
57730;SDS011;43570;47.476;19.040;2022-11-18T02:41:07;47.75;;;39.10;;
57730;SDS011;43570;47.476;19.040;2022-11-18T02:43:35;45.42;;;37.72;;
57730;SDS011;43570;47.476;19.040;2022-11-18T02:46:05;43.33;;;37.63;;
57730;SDS011;43570;47.476;19.040;2022-11-18T02:50:58;42.67;;;35.92;;
57730;SDS011;43570;47.476;19.040;2022-11-18T02:53:24;41.03;;;34.70;;
57730;SDS011;43570;47.476;19.040;2022-11-18T02:55:52;41.90;;;35.30;;
57730;SDS011;43570;47.476;19.040;2022-11-18T02:58:19;43.30;;;34.95;;
57730;SDS011;43570;47.476;19.040;2022-11-18T03:00:51;41.58;;;35.65;;
57730;SDS011;43570;47.476;19.040;2022-11-18T03:03:31;44.83;;;35.42;;
57730;SDS011;43570;47.476;19.040;2022-11-18T03:08:49;41.75;;;35.83;;
57730;SDS011;43570;47.476;19.040;2022-11-18T03:11:25;42.13;;;36.88;;
57730;SDS011;43570;47.476;19.040;2022-11-18T03:16:26;42.60;;;35.97;;
57730;SDS011;43570;47.476;19.040;2022-11-18T03:19:17;45.80;;;35.60;;
57730;SDS011;43570;47.476;19.040;2022-11-18T03:21:47;42.00;;;33.67;;
57730;SDS011;43570;47.476;19.040;2022-11-18T03:24:36;41.30;;;32.80;;
57730;SDS011;43570;47.476;19.040;2022-11-18T03:29:44;32.03;;;28.23;;
57730;SDS011;43570;47.476;19.040;2022-11-18T03:32:23;32.30;;;28.80;;
57730;SDS011;43570;47.476;19.040;2022-11-18T03:34:52;34.78;;;29.08;;
57730;SDS011;43570;47.476;19.040;2022-11-18T03:37:21;34.33;;;28.52;;
57730;SDS011;43570;47.476;19.040;2022-11-18T03:39:48;32.65;;;29.10;;
57730;SDS011;43570;47.476;19.040;2022-11-18T03:42:35;33.70;;;30.00;;
57730;SDS011;43570;47.476;19.040;2022-11-18T03:45:13;36.30;;;32.28;;
57730;SDS011;43570;47.476;19.040;2022-11-18T03:50:36;37.67;;;33.28;;
57730;SDS011;43570;47.476;19.040;2022-11-18T03:53:03;36.53;;;32.60;;
57730;SDS011;43570;47.476;19.040;2022-11-18T03:55:31;42.90;;;35.35;;
57730;SDS011;43570;47.476;19.040;2022-11-18T03:58:09;39.17;;;34.78;;
57730;SDS011;43570;47.476;19.040;2022-11-18T04:00:41;44.83;;;36.08;;
57730;SDS011;43570;47.476;19.040;2022-11-18T04:03:08;44.95;;;38.53;;
57730;SDS011;43570;47.476;19.040;2022-11-18T04:05:36;44.20;;;38.55;;
57730;SDS011;43570;47.476;19.040;2022-11-18T04:08:05;47.07;;;41.13;;
57730;SDS011;43570;47.476;19.040;2022-11-18T04:13:14;47.35;;;40.65;;
57730;SDS011;43570;47.476;19.040;2022-11-18T04:15:41;52.15;;;42.97;;
57730;SDS011;43570;47.476;19.040;2022-11-18T04:18:08;50.85;;;45.10;;
57730;SDS011;43570;47.476;19.040;2022-11-18T04:20:34;49.97;;;42.08;;
57730;SDS011;43570;47.476;19.040;2022-11-18T04:23:01;51.33;;;43.70;;
57730;SDS011;43570;47.476;19.040;2022-11-18T04:25:28;58.25;;;44.92;;
57730;SDS011;43570;47.476;19.040;2022-11-18T04:27:53;57.08;;;44.42;;
57730;SDS011;43570;47.476;19.040;2022-11-18T04:30:18;59.08;;;45.85;;
57730;SDS011;43570;47.476;19.040;2022-11-18T04:32:44;57.22;;;45.40;;
57730;SDS011;43570;47.476;19.040;2022-11-18T04:35:10;60.92;;;46.37;;
57730;SDS011;43570;47.476;19.040;2022-11-18T04:37:35;62.67;;;46.58;;
57730;SDS011;43570;47.476;19.040;2022-11-18T04:40:00;61.65;;;46.58;;
57730;SDS011;43570;47.476;19.040;2022-11-18T04:42:26;60.85;;;47.17;;
57730;SDS011;43570;47.476;19.040;2022-11-18T04:44:51;59.63;;;45.45;;
57730;SDS011;43570;47.476;19.040;2022-11-18T04:47:17;65.00;;;47.20;;
57730;SDS011;43570;47.476;19.040;2022-11-18T04:49:42;65.20;;;48.10;;
57730;SDS011;43570;47.476;19.040;2022-11-18T04:52:08;63.90;;;47.28;;
57730;SDS011;43570;47.476;19.040;2022-11-18T04:54:33;58.03;;;46.72;;
57730;SDS011;43570;47.476;19.040;2022-11-18T04:56:59;60.65;;;46.80;;
57730;SDS011;43570;47.476;19.040;2022-11-18T04:59:25;63.75;;;47.22;;
57730;SDS011;43570;47.476;19.040;2022-11-18T05:01:52;63.50;;;47.17;;
57730;SDS011;43570;47.476;19.040;2022-11-18T05:04:20;60.53;;;47.45;;
57730;SDS011;43570;47.476;19.040;2022-11-18T05:06:47;62.47;;;48.38;;
57730;SDS011;43570;47.476;19.040;2022-11-18T05:09:12;61.50;;;46.65;;
57730;SDS011;43570;47.476;19.040;2022-11-18T05:11:38;66.80;;;49.63;;
57730;SDS011;43570;47.476;19.040;2022-11-18T05:14:25;64.93;;;48.22;;
57730;SDS011;43570;47.476;19.040;2022-11-18T05:16:52;63.05;;;47.50;;
57730;SDS011;43570;47.476;19.040;2022-11-18T05:19:17;66.10;;;50.15;;
57730;SDS011;43570;47.476;19.040;2022-11-18T05:21:43;67.30;;;48.85;;
57730;SDS011;43570;47.476;19.040;2022-11-18T05:24:08;69.68;;;47.10;;
57730;SDS011;43570;47.476;19.040;2022-11-18T05:26:34;78.30;;;54.83;;
57730;SDS011;43570;47.476;19.040;2022-11-18T05:28:59;82.50;;;55.67;;
57730;SDS011;43570;47.476;19.040;2022-11-18T05:31:25;88.25;;;57.85;;
57730;SDS011;43570;47.476;19.040;2022-11-18T05:33:50;80.22;;;56.28;;
57730;SDS011;43570;47.476;19.040;2022-11-18T05:36:17;81.10;;;55.03;;
57730;SDS011;43570;47.476;19.040;2022-11-18T05:38:43;81.15;;;54.45;;
57730;SDS011;43570;47.476;19.040;2022-11-18T05:41:09;82.22;;;55.67;;
57730;SDS011;43570;47.476;19.040;2022-11-18T05:43:35;83.90;;;55.85;;
57730;SDS011;43570;47.476;19.040;2022-11-18T05:46:00;79.37;;;52.50;;
57730;SDS011;43570;47.476;19.040;2022-11-18T05:48:26;82.45;;;52.92;;
57730;SDS011;43570;47.476;19.040;2022-11-18T05:50:52;70.43;;;49.72;;
57730;SDS011;43570;47.476;19.040;2022-11-18T05:53:20;72.22;;;51.58;;
57730;SDS011;43570;47.476;19.040;2022-11-18T05:55:48;77.00;;;52.33;;
57730;SDS011;43570;47.476;19.040;2022-11-18T05:58:17;77.15;;;52.15;;
57730;SDS011;43570;47.476;19.040;2022-11-18T06:00:43;72.10;;;50.28;;
57730;SDS011;43570;47.476;19.040;2022-11-18T06:03:15;69.82;;;49.70;;
57730;SDS011;43570;47.476;19.040;2022-11-18T06:05:44;79.82;;;52.08;;
57730;SDS011;43570;47.476;19.040;2022-11-18T06:08:09;73.87;;;50.88;;
57730;SDS011;43570;47.476;19.040;2022-11-18T06:10:36;72.57;;;51.53;;
57730;SDS011;43570;47.476;19.040;2022-11-18T06:13:03;72.45;;;52.08;;
57730;SDS011;43570;47.476;19.040;2022-11-18T06:15:32;77.43;;;52.35;;
57730;SDS011;43570;47.476;19.040;2022-11-18T06:18:16;80.70;;;52.37;;
57730;SDS011;43570;47.476;19.040;2022-11-18T06:20:47;80.93;;;54.53;;
57730;SDS011;43570;47.476;19.040;2022-11-18T06:23:12;83.72;;;54.30;;
57730;SDS011;43570;47.476;19.040;2022-11-18T06:25:38;85.30;;;52.80;;
57730;SDS011;43570;47.476;19.040;2022-11-18T06:28:04;78.22;;;52.08;;
57730;SDS011;43570;47.476;19.040;2022-11-18T06:30:29;81.75;;;53.05;;
57730;SDS011;43570;47.476;19.040;2022-11-18T06:32:55;79.97;;;50.92;;
57730;SDS011;43570;47.476;19.040;2022-11-18T06:35:20;91.47;;;52.88;;
57730;SDS011;43570;47.476;19.040;2022-11-18T06:37:46;84.87;;;52.28;;
57730;SDS011;43570;47.476;19.040;2022-11-18T06:40:12;78.53;;;51.83;;
57730;SDS011;43570;47.476;19.040;2022-11-18T06:42:37;83.75;;;53.50;;
57730;SDS011;43570;47.476;19.040;2022-11-18T06:45:21;78.87;;;50.50;;
57730;SDS011;43570;47.476;19.040;2022-11-18T06:47:46;74.85;;;49.47;;
57730;SDS011;43570;47.476;19.040;2022-11-18T06:50:11;85.72;;;55.12;;
57730;SDS011;43570;47.476;19.040;2022-11-18T06:52:37;76.20;;;49.70;;
57730;SDS011;43570;47.476;19.040;2022-11-18T06:55:02;77.45;;;48.83;;
57730;SDS011;43570;47.476;19.040;2022-11-18T06:57:31;79.15;;;51.90;;
57730;SDS011;43570;47.476;19.040;2022-11-18T06:59:56;84.37;;;51.03;;
57730;SDS011;43570;47.476;19.040;2022-11-18T07:02:22;78.28;;;49.97;;
57730;SDS011;43570;47.476;19.040;2022-11-18T07:04:47;71.25;;;46.83;;
57730;SDS011;43570;47.476;19.040;2022-11-18T07:07:12;74.45;;;45.30;;
57730;SDS011;43570;47.476;19.040;2022-11-18T07:09:38;76.55;;;46.35;;
57730;SDS011;43570;47.476;19.040;2022-11-18T07:12:03;78.15;;;46.47;;
57730;SDS011;43570;47.476;19.040;2022-11-18T07:14:29;67.05;;;44.47;;
57730;SDS011;43570;47.476;19.040;2022-11-18T07:16:55;68.22;;;42.67;;
57730;SDS011;43570;47.476;19.040;2022-11-18T07:19:20;68.22;;;41.88;;
57730;SDS011;43570;47.476;19.040;2022-11-18T07:21:45;65.28;;;41.72;;
57730;SDS011;43570;47.476;19.040;2022-11-18T07:24:12;65.55;;;42.20;;
57730;SDS011;43570;47.476;19.040;2022-11-18T07:26:38;67.18;;;41.03;;
57730;SDS011;43570;47.476;19.040;2022-11-18T07:29:04;61.37;;;40.35;;
57730;SDS011;43570;47.476;19.040;2022-11-18T07:31:29;64.45;;;41.60;;
57730;SDS011;43570;47.476;19.040;2022-11-18T07:33:55;65.82;;;42.33;;
57730;SDS011;43570;47.476;19.040;2022-11-18T07:36:22;67.70;;;43.00;;
57730;SDS011;43570;47.476;19.040;2022-11-18T07:38:48;70.78;;;42.62;;
57730;SDS011;43570;47.476;19.040;2022-11-18T07:41:24;71.30;;;43.22;;
57730;SDS011;43570;47.476;19.040;2022-11-18T07:43:51;67.50;;;41.95;;
57730;SDS011;43570;47.476;19.040;2022-11-18T07:48:54;62.78;;;39.67;;
57730;SDS011;43570;47.476;19.040;2022-11-18T07:51:22;60.17;;;39.70;;
57730;SDS011;43570;47.476;19.040;2022-11-18T07:53:49;58.10;;;39.00;;
57730;SDS011;43570;47.476;19.040;2022-11-18T07:56:14;56.33;;;37.47;;
57730;SDS011;43570;47.476;19.040;2022-11-18T07:58:40;54.97;;;36.28;;
57730;SDS011;43570;47.476;19.040;2022-11-18T08:01:10;51.03;;;34.35;;
57730;SDS011;43570;47.476;19.040;2022-11-18T08:03:35;50.67;;;36.00;;
57730;SDS011;43570;47.476;19.040;2022-11-18T08:06:02;54.05;;;35.85;;
57730;SDS011;43570;47.476;19.040;2022-11-18T08:08:28;52.30;;;35.58;;
57730;SDS011;43570;47.476;19.040;2022-11-18T08:10:54;49.83;;;35.33;;
57730;SDS011;43570;47.476;19.040;2022-11-18T08:13:21;49.45;;;35.17;;
57730;SDS011;43570;47.476;19.040;2022-11-18T08:15:46;54.50;;;35.78;;
57730;SDS011;43570;47.476;19.040;2022-11-18T08:18:12;62.05;;;38.33;;
57730;SDS011;43570;47.476;19.040;2022-11-18T08:20:37;56.80;;;35.13;;
57730;SDS011;43570;47.476;19.040;2022-11-18T08:23:02;58.22;;;36.85;;
57730;SDS011;43570;47.476;19.040;2022-11-18T08:25:28;55.63;;;37.15;;
57730;SDS011;43570;47.476;19.040;2022-11-18T08:27:53;54.30;;;35.17;;
57730;SDS011;43570;47.476;19.040;2022-11-18T08:30:19;54.50;;;35.72;;
57730;SDS011;43570;47.476;19.040;2022-11-18T08:32:44;53.70;;;34.35;;
57730;SDS011;43570;47.476;19.040;2022-11-18T08:35:10;50.28;;;33.55;;
57730;SDS011;43570;47.476;19.040;2022-11-18T08:37:35;52.67;;;33.40;;
57730;SDS011;43570;47.476;19.040;2022-11-18T08:40:01;52.85;;;33.50;;
57730;SDS011;43570;47.476;19.040;2022-11-18T08:42:27;52.72;;;33.47;;
57730;SDS011;43570;47.476;19.040;2022-11-18T08:44:52;48.15;;;32.08;;
57730;SDS011;43570;47.476;19.040;2022-11-18T08:47:18;48.67;;;30.85;;
57730;SDS011;43570;47.476;19.040;2022-11-18T08:49:43;48.08;;;31.12;;
57730;SDS011;43570;47.476;19.040;2022-11-18T08:52:08;44.25;;;28.73;;
57730;SDS011;43570;47.476;19.040;2022-11-18T08:54:34;49.80;;;31.60;;
57730;SDS011;43570;47.476;19.040;2022-11-18T08:56:59;51.42;;;31.85;;
57730;SDS011;43570;47.476;19.040;2022-11-18T08:59:25;45.33;;;31.42;;
57730;SDS011;43570;47.476;19.040;2022-11-18T09:01:51;45.67;;;30.50;;
57730;SDS011;43570;47.476;19.040;2022-11-18T09:04:16;44.17;;;30.58;;
57730;SDS011;43570;47.476;19.040;2022-11-18T09:06:42;47.42;;;30.90;;
57730;SDS011;43570;47.476;19.040;2022-11-18T09:09:07;44.35;;;29.48;;
57730;SDS011;43570;47.476;19.040;2022-11-18T09:11:33;45.97;;;30.60;;
57730;SDS011;43570;47.476;19.040;2022-11-18T09:13:59;42.15;;;29.08;;
57730;SDS011;43570;47.476;19.040;2022-11-18T09:16:25;40.85;;;28.05;;
57730;SDS011;43570;47.476;19.040;2022-11-18T09:18:51;38.20;;;27.65;;
57730;SDS011;43570;47.476;19.040;2022-11-18T09:21:17;36.78;;;26.62;;
57730;SDS011;43570;47.476;19.040;2022-11-18T09:23:42;35.92;;;25.40;;
57730;SDS011;43570;47.476;19.040;2022-11-18T09:26:09;37.08;;;26.50;;
57730;SDS011;43570;47.476;19.040;2022-11-18T09:28:39;34.33;;;25.17;;
57730;SDS011;43570;47.476;19.040;2022-11-18T09:31:05;35.75;;;24.77;;
57730;SDS011;43570;47.476;19.040;2022-11-18T09:33:32;36.53;;;24.52;;
57730;SDS011;43570;47.476;19.040;2022-11-18T09:35:57;35.60;;;24.80;;
57730;SDS011;43570;47.476;19.040;2022-11-18T09:38:23;36.63;;;25.67;;
57730;SDS011;43570;47.476;19.040;2022-11-18T09:40:53;37.15;;;27.02;;
57730;SDS011;43570;47.476;19.040;2022-11-18T09:48:59;36.28;;;26.08;;
57730;SDS011;43570;47.476;19.040;2022-11-18T09:51:38;34.47;;;26.77;;
57730;SDS011;43570;47.476;19.040;2022-11-18T09:54:07;38.30;;;27.13;;
57730;SDS011;43570;47.476;19.040;2022-11-18T09:56:34;37.75;;;26.60;;
57730;SDS011;43570;47.476;19.040;2022-11-18T09:59:00;39.05;;;25.55;;
57730;SDS011;43570;47.476;19.040;2022-11-18T10:01:27;35.00;;;24.45;;
57730;SDS011;43570;47.476;19.040;2022-11-18T10:03:53;34.65;;;24.70;;
57730;SDS011;43570;47.476;19.040;2022-11-18T10:08:58;41.78;;;27.90;;
57730;SDS011;43570;47.476;19.040;2022-11-18T10:20:02;36.28;;;27.42;;
57730;SDS011;43570;47.476;19.040;2022-11-18T10:22:56;37.67;;;27.05;;
57730;SDS011;43570;47.476;19.040;2022-11-18T10:25:24;39.90;;;28.58;;
57730;SDS011;43570;47.476;19.040;2022-11-18T10:27:50;36.42;;;27.37;;
57730;SDS011;43570;47.476;19.040;2022-11-18T10:30:16;39.10;;;27.85;;
57730;SDS011;43570;47.476;19.040;2022-11-18T10:35:26;39.47;;;28.62;;
57730;SDS011;43570;47.476;19.040;2022-11-18T10:38:01;43.37;;;30.77;;
57730;SDS011;43570;47.476;19.040;2022-11-18T10:40:41;45.42;;;31.52;;
57730;SDS011;43570;47.476;19.040;2022-11-18T10:43:10;44.78;;;30.88;;
57730;SDS011;43570;47.476;19.040;2022-11-18T10:45:37;40.28;;;28.95;;
57730;SDS011;43570;47.476;19.040;2022-11-18T10:48:07;46.92;;;32.97;;
57730;SDS011;43570;47.476;19.040;2022-11-18T10:53:00;43.00;;;30.10;;
57730;SDS011;43570;47.476;19.040;2022-11-18T10:55:27;43.38;;;30.50;;
57730;SDS011;43570;47.476;19.040;2022-11-18T10:58:01;43.90;;;29.35;;
57730;SDS011;43570;47.476;19.040;2022-11-18T11:00:38;42.58;;;28.98;;
57730;SDS011;43570;47.476;19.040;2022-11-18T11:06:11;41.05;;;30.10;;
57730;SDS011;43570;47.476;19.040;2022-11-18T11:08:50;38.97;;;28.70;;
57730;SDS011;43570;47.476;19.040;2022-11-18T11:11:23;39.85;;;29.20;;
57730;SDS011;43570;47.476;19.040;2022-11-18T11:13:57;37.60;;;28.85;;
57730;SDS011;43570;47.476;19.040;2022-11-18T11:16:29;37.78;;;28.60;;
57730;SDS011;43570;47.476;19.040;2022-11-18T11:18:59;42.08;;;30.10;;
57730;SDS011;43570;47.476;19.040;2022-11-18T11:21:25;40.65;;;30.83;;
57730;SDS011;43570;47.476;19.040;2022-11-18T11:23:52;39.22;;;29.30;;
57730;SDS011;43570;47.476;19.040;2022-11-18T11:26:28;38.58;;;28.70;;
57730;SDS011;43570;47.476;19.040;2022-11-18T11:29:08;41.37;;;29.33;;
57730;SDS011;43570;47.476;19.040;2022-11-18T11:34:40;33.75;;;24.50;;
57730;SDS011;43570;47.476;19.040;2022-11-18T11:45:15;29.55;;;22.83;;
57730;SDS011;43570;47.476;19.040;2022-11-18T11:56:23;28.48;;;21.73;;
57730;SDS011;43570;47.476;19.040;2022-11-18T12:06:55;29.77;;;21.05;;
57730;SDS011;43570;47.476;19.040;2022-11-18T12:17:38;35.67;;;27.50;;
57730;SDS011;43570;47.476;19.040;2022-11-18T12:30:50;32.47;;;25.10;;
57730;SDS011;43570;47.476;19.040;2022-11-18T12:33:15;33.47;;;25.08;;
57730;SDS011;43570;47.476;19.040;2022-11-18T12:35:45;32.95;;;28.40;;
57730;SDS011;43570;47.476;19.040;2022-11-18T12:38:29;26.95;;;22.42;;
57730;SDS011;43570;47.476;19.040;2022-11-18T12:40:55;26.15;;;21.60;;
57730;SDS011;43570;47.476;19.040;2022-11-18T12:48:51;21.95;;;18.90;;
57730;SDS011;43570;47.476;19.040;2022-11-18T12:53:46;24.30;;;19.42;;
57730;SDS011;43570;47.476;19.040;2022-11-18T12:59:00;20.80;;;16.70;;
57730;SDS011;43570;47.476;19.040;2022-11-18T13:01:26;19.40;;;15.93;;
57730;SDS011;43570;47.476;19.040;2022-11-18T13:06:33;17.27;;;15.27;;
57730;SDS011;43570;47.476;19.040;2022-11-18T13:09:01;18.85;;;16.48;;
57730;SDS011;43570;47.476;19.040;2022-11-18T13:11:32;20.58;;;17.05;;
57730;SDS011;43570;47.476;19.040;2022-11-18T13:14:44;20.12;;;16.33;;
57730;SDS011;43570;47.476;19.040;2022-11-18T13:20:21;18.50;;;16.42;;
57730;SDS011;43570;47.476;19.040;2022-11-18T13:22:51;17.80;;;15.90;;
57730;SDS011;43570;47.476;19.040;2022-11-18T13:30:43;17.25;;;15.23;;
57730;SDS011;43570;47.476;19.040;2022-11-18T13:33:14;17.48;;;14.80;;
57730;SDS011;43570;47.476;19.040;2022-11-18T13:35:39;17.95;;;14.87;;
57730;SDS011;43570;47.476;19.040;2022-11-18T13:38:05;17.33;;;15.40;;
57730;SDS011;43570;47.476;19.040;2022-11-18T13:40:38;18.23;;;16.25;;
57730;SDS011;43570;47.476;19.040;2022-11-18T13:43:27;20.52;;;17.77;;
57730;SDS011;43570;47.476;19.040;2022-11-18T13:45:52;20.35;;;18.15;;
57730;SDS011;43570;47.476;19.040;2022-11-18T13:48:18;25.52;;;22.37;;
57730;SDS011;43570;47.476;19.040;2022-11-18T13:50:47;21.23;;;18.05;;
57730;SDS011;43570;47.476;19.040;2022-11-18T13:53:29;20.77;;;17.65;;
57730;SDS011;43570;47.476;19.040;2022-11-18T13:56:14;21.02;;;18.45;;
57730;SDS011;43570;47.476;19.040;2022-11-18T13:58:42;22.92;;;19.37;;
57730;SDS011;43570;47.476;19.040;2022-11-18T14:06:23;23.00;;;18.83;;
57730;SDS011;43570;47.476;19.040;2022-11-18T14:08:50;19.12;;;16.20;;
57730;SDS011;43570;47.476;19.040;2022-11-18T14:11:32;17.85;;;15.93;;
57730;SDS011;43570;47.476;19.040;2022-11-18T14:14:02;18.20;;;15.50;;
57730;SDS011;43570;47.476;19.040;2022-11-18T14:16:33;19.95;;;16.77;;
57730;SDS011;43570;47.476;19.040;2022-11-18T14:19:00;19.80;;;15.93;;
57730;SDS011;43570;47.476;19.040;2022-11-18T14:21:26;22.42;;;17.85;;
57730;SDS011;43570;47.476;19.040;2022-11-18T14:23:53;26.40;;;20.67;;
57730;SDS011;43570;47.476;19.040;2022-11-18T14:26:35;20.05;;;17.45;;
57730;SDS011;43570;47.476;19.040;2022-11-18T14:29:22;24.27;;;18.85;;
57730;SDS011;43570;47.476;19.040;2022-11-18T14:34:37;22.27;;;19.15;;
57730;SDS011;43570;47.476;19.040;2022-11-18T14:37:12;29.80;;;26.48;;
57730;SDS011;43570;47.476;19.040;2022-11-18T14:39:38;23.42;;;20.08;;
57730;SDS011;43570;47.476;19.040;2022-11-18T14:42:04;22.30;;;19.15;;
57730;SDS011;43570;47.476;19.040;2022-11-18T14:44:33;24.83;;;20.17;;
57730;SDS011;43570;47.476;19.040;2022-11-18T14:47:00;24.55;;;20.55;;
57730;SDS011;43570;47.476;19.040;2022-11-18T14:49:27;22.92;;;20.23;;
57730;SDS011;43570;47.476;19.040;2022-11-18T14:51:55;26.58;;;22.83;;
57730;SDS011;43570;47.476;19.040;2022-11-18T14:54:23;34.15;;;24.80;;
57730;SDS011;43570;47.476;19.040;2022-11-18T14:56:49;26.20;;;22.08;;
57730;SDS011;43570;47.476;19.040;2022-11-18T14:59:16;25.98;;;22.37;;
57730;SDS011;43570;47.476;19.040;2022-11-18T15:01:43;26.73;;;22.60;;
57730;SDS011;43570;47.476;19.040;2022-11-18T15:04:08;25.55;;;21.80;;
57730;SDS011;43570;47.476;19.040;2022-11-18T15:06:35;28.87;;;23.70;;
57730;SDS011;43570;47.476;19.040;2022-11-18T15:09:00;23.80;;;21.23;;
57730;SDS011;43570;47.476;19.040;2022-11-18T15:11:25;28.98;;;25.17;;
57730;SDS011;43570;47.476;19.040;2022-11-18T15:13:51;29.30;;;23.90;;
57730;SDS011;43570;47.476;19.040;2022-11-18T15:16:17;27.65;;;24.12;;
57730;SDS011;43570;47.476;19.040;2022-11-18T15:18:46;27.48;;;22.60;;
57730;SDS011;43570;47.476;19.040;2022-11-18T15:21:13;28.55;;;24.60;;
57730;SDS011;43570;47.476;19.040;2022-11-18T15:23:39;31.85;;;26.67;;
57730;SDS011;43570;47.476;19.040;2022-11-18T15:26:11;27.45;;;24.55;;
57730;SDS011;43570;47.476;19.040;2022-11-18T15:31:13;31.40;;;27.52;;
57730;SDS011;43570;47.476;19.040;2022-11-18T15:33:39;30.50;;;25.92;;
57730;SDS011;43570;47.476;19.040;2022-11-18T15:36:08;31.58;;;25.62;;
57730;SDS011;43570;47.476;19.040;2022-11-18T15:38:37;30.25;;;26.73;;
57730;SDS011;43570;47.476;19.040;2022-11-18T15:41:02;30.40;;;26.15;;
57730;SDS011;43570;47.476;19.040;2022-11-18T15:43:28;30.62;;;26.08;;
57730;SDS011;43570;47.476;19.040;2022-11-18T15:45:56;30.92;;;26.20;;
57730;SDS011;43570;47.476;19.040;2022-11-18T15:48:22;31.37;;;26.65;;
57730;SDS011;43570;47.476;19.040;2022-11-18T15:50:48;31.33;;;27.33;;
57730;SDS011;43570;47.476;19.040;2022-11-18T15:53:13;31.15;;;27.42;;
57730;SDS011;43570;47.476;19.040;2022-11-18T15:55:39;33.13;;;28.67;;
57730;SDS011;43570;47.476;19.040;2022-11-18T15:58:04;31.10;;;26.65;;
57730;SDS011;43570;47.476;19.040;2022-11-18T16:00:29;34.47;;;28.23;;
57730;SDS011;43570;47.476;19.040;2022-11-18T16:02:55;33.35;;;26.62;;
57730;SDS011;43570;47.476;19.040;2022-11-18T16:05:20;34.45;;;28.33;;
57730;SDS011;43570;47.476;19.040;2022-11-18T16:07:45;33.95;;;28.17;;
57730;SDS011;43570;47.476;19.040;2022-11-18T16:10:11;33.40;;;27.75;;
57730;SDS011;43570;47.476;19.040;2022-11-18T16:12:56;34.47;;;27.73;;
57730;SDS011;43570;47.476;19.040;2022-11-18T16:15:21;35.20;;;28.73;;
57730;SDS011;43570;47.476;19.040;2022-11-18T16:18:05;37.25;;;29.63;;
57730;SDS011;43570;47.476;19.040;2022-11-18T16:20:32;36.13;;;30.55;;
57730;SDS011;43570;47.476;19.040;2022-11-18T16:22:58;38.10;;;31.08;;
57730;SDS011;43570;47.476;19.040;2022-11-18T16:25:23;36.85;;;30.20;;
57730;SDS011;43570;47.476;19.040;2022-11-18T16:27:49;40.20;;;31.23;;
57730;SDS011;43570;47.476;19.040;2022-11-18T16:30:14;37.47;;;30.45;;